sensor_id;sensor_type;location;lat;lon;timestamp;pressure;altitude;pressure_sealevel;temperature;humidity
15382;BME280;7789;51.364;12.358;2023-03-13T00:00:28;99548.69;;;9.15;100.00
15382;BME280;7789;51.364;12.358;2023-03-13T00:05:34;99542.53;;;9.16;100.00
15382;BME280;7789;51.364;12.358;2023-03-13T00:10:39;99546.63;;;9.18;100.00
15382;BME280;7789;51.364;12.358;2023-03-13T00:15:42;99536.06;;;9.20;100.00
15382;BME280;7789;51.364;12.358;2023-03-13T00:20:45;99528.94;;;9.22;100.00
15382;BME280;7789;51.364;12.358;2023-03-13T00:25:56;99530.56;;;9.23;100.00
15382;BME280;7789;51.364;12.358;2023-03-13T00:31:01;99527.16;;;9.22;100.00
15382;BME280;7789;51.364;12.358;2023-03-13T00:36:06;99524.56;;;9.22;100.00
15382;BME280;7789;51.364;12.358;2023-03-13T00:41:12;99512.88;;;9.26;100.00
15382;BME280;7789;51.364;12.358;2023-03-13T00:46:17;99523.19;;;9.28;100.00
15382;BME280;7789;51.364;12.358;2023-03-13T00:51:22;99523.72;;;9.31;100.00
15382;BME280;7789;51.364;12.358;2023-03-13T00:56:29;99507.38;;;9.39;100.00
15382;BME280;7789;51.364;12.358;2023-03-13T01:01:34;99515.88;;;9.41;100.00
15382;BME280;7789;51.364;12.358;2023-03-13T01:06:38;99509.28;;;9.46;100.00
15382;BME280;7789;51.364;12.358;2023-03-13T01:11:45;99500.75;;;9.54;100.00
15382;BME280;7789;51.364;12.358;2023-03-13T01:16:48;99496.78;;;9.59;100.00
15382;BME280;7789;51.364;12.358;2023-03-13T01:21:52;99480.53;;;9.65;100.00
15382;BME280;7789;51.364;12.358;2023-03-13T01:26:57;99478.34;;;9.70;100.00
15382;BME280;7789;51.364;12.358;2023-03-13T01:32:00;99459.78;;;9.73;100.00
15382;BME280;7789;51.364;12.358;2023-03-13T01:37:03;99458.41;;;9.79;100.00
15382;BME280;7789;51.364;12.358;2023-03-13T01:42:09;99453.69;;;9.82;100.00
15382;BME280;7789;51.364;12.358;2023-03-13T01:47:12;99447.38;;;9.85;100.00
15382;BME280;7789;51.364;12.358;2023-03-13T01:52:21;99448.44;;;9.92;100.00
15382;BME280;7789;51.364;12.358;2023-03-13T01:57:29;99439.50;;;9.94;100.00
15382;BME280;7789;51.364;12.358;2023-03-13T02:02:33;99429.88;;;9.95;100.00
15382;BME280;7789;51.364;12.358;2023-03-13T02:07:39;99424.66;;;9.95;100.00
15382;BME280;7789;51.364;12.358;2023-03-13T02:12:45;99426.31;;;9.96;100.00
15382;BME280;7789;51.364;12.358;2023-03-13T02:17:49;99434.16;;;9.96;100.00
15382;BME280;7789;51.364;12.358;2023-03-13T02:22:57;99421.91;;;9.96;100.00
15382;BME280;7789;51.364;12.358;2023-03-13T02:28:07;99409.69;;;9.97;100.00
15382;BME280;7789;51.364;12.358;2023-03-13T02:33:11;99399.09;;;9.98;100.00
15382;BME280;7789;51.364;12.358;2023-03-13T02:38:19;99380.00;;;9.98;100.00
15382;BME280;7789;51.364;12.358;2023-03-13T02:43:28;99372.72;;;10.01;100.00
15382;BME280;7789;51.364;12.358;2023-03-13T02:48:35;99374.91;;;10.06;100.00
15382;BME280;7789;51.364;12.358;2023-03-13T02:53:40;99362.50;;;10.08;100.00
15382;BME280;7789;51.364;12.358;2023-03-13T02:58:47;99358.25;;;10.07;100.00
15382;BME280;7789;51.364;12.358;2023-03-13T03:03:51;99354.53;;;10.09;100.00
15382;BME280;7789;51.364;12.358;2023-03-13T03:08:55;99345.88;;;10.09;100.00
15382;BME280;7789;51.364;12.358;2023-03-13T03:14:00;99328.97;;;10.13;100.00
15382;BME280;7789;51.364;12.358;2023-03-13T03:19:03;99320.16;;;10.14;100.00
15382;BME280;7789;51.364;12.358;2023-03-13T03:24:07;99313.97;;;10.15;100.00
15382;BME280;7789;51.364;12.358;2023-03-13T03:29:12;99302.38;;;10.17;99.92
15382;BME280;7789;51.364;12.358;2023-03-13T03:34:15;99295.38;;;10.18;99.42
15382;BME280;7789;51.364;12.358;2023-03-13T03:39:19;99288.22;;;10.20;98.98
15382;BME280;7789;51.364;12.358;2023-03-13T03:44:23;99287.25;;;10.21;99.13
15382;BME280;7789;51.364;12.358;2023-03-13T03:49:27;99279.28;;;10.22;99.17
15382;BME280;7789;51.364;12.358;2023-03-13T03:54:30;99260.69;;;10.25;99.13
15382;BME280;7789;51.364;12.358;2023-03-13T03:59:35;99255.47;;;10.25;99.28
15382;BME280;7789;51.364;12.358;2023-03-13T04:04:38;99256.78;;;10.29;98.92
15382;BME280;7789;51.364;12.358;2023-03-13T04:09:41;99241.78;;;10.31;99.09
15382;BME280;7789;51.364;12.358;2023-03-13T04:14:46;99231.03;;;10.34;99.11
15382;BME280;7789;51.364;12.358;2023-03-13T04:19:49;99227.31;;;10.37;98.62
15382;BME280;7789;51.364;12.358;2023-03-13T04:24:52;99211.00;;;10.43;99.30
15382;BME280;7789;51.364;12.358;2023-03-13T04:29:58;99206.97;;;10.48;98.33
15382;BME280;7789;51.364;12.358;2023-03-13T04:35:01;99190.00;;;10.52;98.42
15382;BME280;7789;51.364;12.358;2023-03-13T04:40:06;99176.63;;;10.55;98.99
15382;BME280;7789;51.364;12.358;2023-03-13T04:45:11;99171.41;;;10.55;99.35
15382;BME280;7789;51.364;12.358;2023-03-13T04:50:15;99161.13;;;10.54;98.45
15382;BME280;7789;51.364;12.358;2023-03-13T04:55:18;99159.31;;;10.54;99.53
15382;BME280;7789;51.364;12.358;2023-03-13T05:00:23;99135.81;;;10.54;99.46
15382;BME280;7789;51.364;12.358;2023-03-13T05:05:26;99124.38;;;10.55;99.36
15382;BME280;7789;51.364;12.358;2023-03-13T05:10:33;99117.38;;;10.56;99.37
15382;BME280;7789;51.364;12.358;2023-03-13T05:15:39;99114.28;;;10.60;99.06
15382;BME280;7789;51.364;12.358;2023-03-13T05:20:43;99098.63;;;10.60;99.96
15382;BME280;7789;51.364;12.358;2023-03-13T05:25:48;99077.53;;;10.62;99.25
15382;BME280;7789;51.364;12.358;2023-03-13T05:30:52;99053.03;;;10.63;99.88
15382;BME280;7789;51.364;12.358;2023-03-13T05:35:56;99049.16;;;10.67;100.00
15382;BME280;7789;51.364;12.358;2023-03-13T05:41:01;99040.47;;;10.66;100.00
15382;BME280;7789;51.364;12.358;2023-03-13T05:46:05;99027.41;;;10.66;100.00
15382;BME280;7789;51.364;12.358;2023-03-13T05:51:09;99013.38;;;10.67;100.00
15382;BME280;7789;51.364;12.358;2023-03-13T05:56:12;98994.59;;;10.72;100.00
15382;BME280;7789;51.364;12.358;2023-03-13T06:01:17;98984.97;;;10.80;100.00
15382;BME280;7789;51.364;12.358;2023-03-13T06:06:26;98973.72;;;10.88;100.00
15382;BME280;7789;51.364;12.358;2023-03-13T06:11:29;98962.63;;;10.86;100.00
15382;BME280;7789;51.364;12.358;2023-03-13T06:16:34;98957.72;;;10.91;100.00
15382;BME280;7789;51.364;12.358;2023-03-13T06:21:37;98961.81;;;10.93;100.00
15382;BME280;7789;51.364;12.358;2023-03-13T06:26:46;98963.59;;;10.93;100.00
15382;BME280;7789;51.364;12.358;2023-03-13T06:31:52;98944.63;;;10.91;100.00
15382;BME280;7789;51.364;12.358;2023-03-13T06:37:02;98949.38;;;10.95;100.00
15382;BME280;7789;51.364;12.358;2023-03-13T06:42:06;98928.13;;;10.98;100.00
15382;BME280;7789;51.364;12.358;2023-03-13T06:47:16;98923.41;;;11.02;100.00
15382;BME280;7789;51.364;12.358;2023-03-13T06:52:20;98938.75;;;11.04;100.00
15382;BME280;7789;51.364;12.358;2023-03-13T06:57:44;98947.91;;;11.08;100.00
15382;BME280;7789;51.364;12.358;2023-03-13T07:02:52;98947.75;;;11.18;100.00
15382;BME280;7789;51.364;12.358;2023-03-13T07:07:56;98939.25;;;11.24;100.00
15382;BME280;7789;51.364;12.358;2023-03-13T07:13:02;98929.25;;;11.27;100.00
15382;BME280;7789;51.364;12.358;2023-03-13T07:18:07;98927.78;;;11.33;100.00
15382;BME280;7789;51.364;12.358;2023-03-13T07:23:11;98917.63;;;11.38;100.00
15382;BME280;7789;51.364;12.358;2023-03-13T07:28:14;98906.97;;;11.47;100.00
15382;BME280;7789;51.364;12.358;2023-03-13T07:33:19;98894.06;;;11.54;100.00
15382;BME280;7789;51.364;12.358;2023-03-13T07:38:22;98893.09;;;11.63;100.00
15382;BME280;7789;51.364;12.358;2023-03-13T07:43:27;98904.16;;;11.73;100.00
15382;BME280;7789;51.364;12.358;2023-03-13T07:48:35;98889.09;;;11.83;100.00
15382;BME280;7789;51.364;12.358;2023-03-13T07:53:38;98877.44;;;11.93;100.00
15382;BME280;7789;51.364;12.358;2023-03-13T07:58:42;98882.28;;;12.04;100.00
15382;BME280;7789;51.364;12.358;2023-03-13T08:03:47;98890.41;;;12.17;100.00
15382;BME280;7789;51.364;12.358;2023-03-13T08:08:51;98895.25;;;12.28;100.00
15382;BME280;7789;51.364;12.358;2023-03-13T08:13:56;98903.25;;;12.35;100.00
15382;BME280;7789;51.364;12.358;2023-03-13T08:19:02;98892.25;;;12.39;100.00
15382;BME280;7789;51.364;12.358;2023-03-13T08:24:07;98890.28;;;12.41;100.00
15382;BME280;7789;51.364;12.358;2023-03-13T08:29:12;98884.03;;;12.42;100.00
15382;BME280;7789;51.364;12.358;2023-03-13T08:34:18;98878.09;;;12.48;100.00
15382;BME280;7789;51.364;12.358;2023-03-13T08:39:22;98894.16;;;12.45;100.00
15382;BME280;7789;51.364;12.358;2023-03-13T08:44:26;98895.00;;;12.46;100.00
15382;BME280;7789;51.364;12.358;2023-03-13T08:49:30;98898.91;;;12.50;100.00
15382;BME280;7789;51.364;12.358;2023-03-13T08:54:33;98889.34;;;12.57;100.00
15382;BME280;7789;51.364;12.358;2023-03-13T08:59:37;98902.75;;;12.62;100.00
15382;BME280;7789;51.364;12.358;2023-03-13T09:04:41;98893.34;;;12.67;100.00
15382;BME280;7789;51.364;12.358;2023-03-13T09:09:44;98879.94;;;12.70;100.00
15382;BME280;7789;51.364;12.358;2023-03-13T09:14:48;98905.28;;;12.78;100.00
15382;BME280;7789;51.364;12.358;2023-03-13T09:19:54;98894.22;;;12.82;100.00
15382;BME280;7789;51.364;12.358;2023-03-13T09:25:01;98870.28;;;12.85;100.00
15382;BME280;7789;51.364;12.358;2023-03-13T09:30:06;98873.50;;;12.95;100.00
15382;BME280;7789;51.364;12.358;2023-03-13T09:35:10;98873.25;;;13.04;100.00
15382;BME280;7789;51.364;12.358;2023-03-13T09:40:22;98873.94;;;13.21;100.00
15382;BME280;7789;51.364;12.358;2023-03-13T09:45:31;98862.09;;;13.39;100.00
15382;BME280;7789;51.364;12.358;2023-03-13T09:50:41;98868.91;;;13.48;100.00
15382;BME280;7789;51.364;12.358;2023-03-13T09:55:47;98884.03;;;13.61;100.00
15382;BME280;7789;51.364;12.358;2023-03-13T10:00:53;98900.66;;;13.68;100.00
15382;BME280;7789;51.364;12.358;2023-03-13T10:06:03;98891.88;;;13.75;100.00
15382;BME280;7789;51.364;12.358;2023-03-13T10:11:11;98873.59;;;13.82;100.00
15382;BME280;7789;51.364;12.358;2023-03-13T10:16:19;98868.59;;;13.87;100.00
15382;BME280;7789;51.364;12.358;2023-03-13T10:21:32;98860.00;;;13.93;100.00
15382;BME280;7789;51.364;12.358;2023-03-13T10:26:37;98861.88;;;13.99;100.00
15382;BME280;7789;51.364;12.358;2023-03-13T10:31:41;98872.47;;;14.05;100.00
15382;BME280;7789;51.364;12.358;2023-03-13T10:36:53;98877.66;;;14.13;100.00
15382;BME280;7789;51.364;12.358;2023-03-13T10:42:07;98881.97;;;14.21;100.00
15382;BME280;7789;51.364;12.358;2023-03-13T10:47:14;98865.28;;;14.28;100.00
15382;BME280;7789;51.364;12.358;2023-03-13T10:52:41;98847.22;;;14.40;100.00
15382;BME280;7789;51.364;12.358;2023-03-13T10:57:53;98832.38;;;14.53;100.00
15382;BME280;7789;51.364;12.358;2023-03-13T11:02:57;98810.84;;;14.64;100.00
15382;BME280;7789;51.364;12.358;2023-03-13T11:08:18;98776.19;;;14.82;99.24
15382;BME280;7789;51.364;12.358;2023-03-13T11:13:33;98777.13;;;15.01;98.66
15382;BME280;7789;51.364;12.358;2023-03-13T11:18:42;98765.94;;;15.27;97.78
15382;BME280;7789;51.364;12.358;2023-03-13T11:23:54;98773.41;;;15.51;96.76
15382;BME280;7789;51.364;12.358;2023-03-13T11:29:08;98754.81;;;15.65;94.74
15382;BME280;7789;51.364;12.358;2023-03-13T11:34:21;98770.06;;;15.83;93.61
15382;BME280;7789;51.364;12.358;2023-03-13T11:39:47;98758.16;;;16.00;92.28
15382;BME280;7789;51.364;12.358;2023-03-13T11:44:59;98756.78;;;16.10;92.04
15382;BME280;7789;51.364;12.358;2023-03-13T11:50:27;98751.16;;;16.26;90.45
15382;BME280;7789;51.364;12.358;2023-03-13T11:55:47;98749.16;;;16.67;89.55
15382;BME280;7789;51.364;12.358;2023-03-13T12:00:58;98753.56;;;17.12;87.87
15382;BME280;7789;51.364;12.358;2023-03-13T12:06:03;98751.69;;;17.45;84.64
15382;BME280;7789;51.364;12.358;2023-03-13T12:11:25;98749.91;;;17.83;83.95
15382;BME280;7789;51.364;12.358;2023-03-13T12:16:37;98734.38;;;17.93;80.69
15382;BME280;7789;51.364;12.358;2023-03-13T12:21:45;98720.19;;;17.87;79.65
15382;BME280;7789;51.364;12.358;2023-03-13T12:26:53;98706.03;;;18.06;79.52
15382;BME280;7789;51.364;12.358;2023-03-13T12:32:02;98718.63;;;18.04;78.38
15382;BME280;7789;51.364;12.358;2023-03-13T12:37:11;98707.75;;;17.88;78.66
15382;BME280;7789;51.364;12.358;2023-03-13T12:42:33;98703.97;;;18.08;78.18
15382;BME280;7789;51.364;12.358;2023-03-13T12:47:55;98686.50;;;18.07;77.00
15382;BME280;7789;51.364;12.358;2023-03-13T12:53:23;98700.78;;;18.00;77.00
15382;BME280;7789;51.364;12.358;2023-03-13T12:58:51;98689.22;;;17.94;77.21
15382;BME280;7789;51.364;12.358;2023-03-13T13:03:59;98680.56;;;17.81;78.17
15382;BME280;7789;51.364;12.358;2023-03-13T13:09:20;98682.63;;;17.79;78.24
15382;BME280;7789;51.364;12.358;2023-03-13T13:14:59;98686.31;;;17.71;78.28
15382;BME280;7789;51.364;12.358;2023-03-13T13:20:37;98681.84;;;17.65;78.93
15382;BME280;7789;51.364;12.358;2023-03-13T13:25:41;98659.31;;;17.63;79.04
15382;BME280;7789;51.364;12.358;2023-03-13T13:30:46;98662.91;;;17.68;78.87
15382;BME280;7789;51.364;12.358;2023-03-13T13:36:25;98670.03;;;17.74;78.24
15382;BME280;7789;51.364;12.358;2023-03-13T13:41:37;98655.66;;;17.64;78.36
15382;BME280;7789;51.364;12.358;2023-03-13T13:46:44;98649.38;;;17.58;78.05
15382;BME280;7789;51.364;12.358;2023-03-13T13:57:39;98647.16;;;17.55;77.91
15382;BME280;7789;51.364;12.358;2023-03-13T14:02:49;98634.31;;;17.59;78.52
15382;BME280;7789;51.364;12.358;2023-03-13T14:07:59;98631.03;;;17.63;78.27
15382;BME280;7789;51.364;12.358;2023-03-13T14:13:11;98630.19;;;17.69;77.90
15382;BME280;7789;51.364;12.358;2023-03-13T14:18:21;98612.41;;;17.83;77.66
15382;BME280;7789;51.364;12.358;2023-03-13T14:23:32;98614.78;;;17.91;77.61
15382;BME280;7789;51.364;12.358;2023-03-13T14:28:37;98616.09;;;17.82;77.89
15382;BME280;7789;51.364;12.358;2023-03-13T14:33:43;98609.78;;;17.83;78.31
15382;BME280;7789;51.364;12.358;2023-03-13T14:38:54;98604.91;;;17.80;78.66
15382;BME280;7789;51.364;12.358;2023-03-13T14:44:03;98610.28;;;17.67;78.41
15382;BME280;7789;51.364;12.358;2023-03-13T14:49:15;98599.31;;;17.63;78.77
15382;BME280;7789;51.364;12.358;2023-03-13T14:54:27;98594.84;;;17.64;78.68
15382;BME280;7789;51.364;12.358;2023-03-13T14:59:31;98597.69;;;17.62;79.49
15382;BME280;7789;51.364;12.358;2023-03-13T15:04:50;98588.06;;;17.74;79.30
15382;BME280;7789;51.364;12.358;2023-03-13T15:09:55;98573.66;;;17.70;78.77
15382;BME280;7789;51.364;12.358;2023-03-13T15:14:59;98576.09;;;17.72;78.56
15382;BME280;7789;51.364;12.358;2023-03-13T15:20:05;98585.47;;;17.68;78.70
15382;BME280;7789;51.364;12.358;2023-03-13T15:25:14;98561.09;;;17.66;78.51
15382;BME280;7789;51.364;12.358;2023-03-13T15:30:20;98558.53;;;17.53;79.08
15382;BME280;7789;51.364;12.358;2023-03-13T15:35:28;98546.59;;;17.44;79.23
15382;BME280;7789;51.364;12.358;2023-03-13T15:40:31;98537.13;;;17.36;79.60
15382;BME280;7789;51.364;12.358;2023-03-13T15:45:37;98527.34;;;17.30;79.93
15382;BME280;7789;51.364;12.358;2023-03-13T15:50:43;98511.09;;;17.27;80.18
15382;BME280;7789;51.364;12.358;2023-03-13T15:55:47;98487.59;;;17.19;80.58
15382;BME280;7789;51.364;12.358;2023-03-13T16:00:51;98487.59;;;17.19;80.96
15382;BME280;7789;51.364;12.358;2023-03-13T16:05:56;98475.38;;;17.24;80.98
15382;BME280;7789;51.364;12.358;2023-03-13T16:11:01;98467.00;;;17.34;81.15
15382;BME280;7789;51.364;12.358;2023-03-13T16:16:14;98450.28;;;17.40;80.85
15382;BME280;7789;51.364;12.358;2023-03-13T16:21:22;98429.97;;;17.40;80.68
15382;BME280;7789;51.364;12.358;2023-03-13T16:26:27;98411.53;;;17.34;80.73
15382;BME280;7789;51.364;12.358;2023-03-13T16:31:32;98411.75;;;17.26;80.92
15382;BME280;7789;51.364;12.358;2023-03-13T16:36:37;98411.84;;;17.19;81.14
15382;BME280;7789;51.364;12.358;2023-03-13T16:41:40;98402.13;;;17.13;81.29
15382;BME280;7789;51.364;12.358;2023-03-13T16:46:44;98406.22;;;17.09;81.60
15382;BME280;7789;51.364;12.358;2023-03-13T16:52:09;98407.44;;;17.07;81.86
15382;BME280;7789;51.364;12.358;2023-03-13T16:57:16;98399.38;;;17.02;81.83
15382;BME280;7789;51.364;12.358;2023-03-13T17:02:20;98407.13;;;16.97;82.37
15382;BME280;7789;51.364;12.358;2023-03-13T17:07:25;98400.03;;;16.91;82.41
15382;BME280;7789;51.364;12.358;2023-03-13T17:12:30;98385.66;;;16.87;83.09
15382;BME280;7789;51.364;12.358;2023-03-13T17:17:33;98394.63;;;16.79;83.29
15382;BME280;7789;51.364;12.358;2023-03-13T17:22:38;98386.94;;;16.78;83.89
15382;BME280;7789;51.364;12.358;2023-03-13T17:27:45;98392.63;;;16.75;83.93
15382;BME280;7789;51.364;12.358;2023-03-13T17:32:52;98388.41;;;16.68;84.62
15382;BME280;7789;51.364;12.358;2023-03-13T17:37:57;98377.50;;;16.64;84.65
15382;BME280;7789;51.364;12.358;2023-03-13T17:43:00;98385.84;;;16.61;85.29
15382;BME280;7789;51.364;12.358;2023-03-13T17:48:13;98388.69;;;16.60;85.78
15382;BME280;7789;51.364;12.358;2023-03-13T17:53:19;98362.97;;;16.49;86.31
15382;BME280;7789;51.364;12.358;2023-03-13T17:58:22;98340.28;;;16.41;86.94
15382;BME280;7789;51.364;12.358;2023-03-13T18:03:26;98344.59;;;16.36;86.92
15382;BME280;7789;51.364;12.358;2023-03-13T18:08:31;98328.94;;;16.34;86.73
15382;BME280;7789;51.364;12.358;2023-03-13T18:13:39;98308.47;;;16.36;86.03
15382;BME280;7789;51.364;12.358;2023-03-13T18:18:42;98282.47;;;16.33;84.83
15382;BME280;7789;51.364;12.358;2023-03-13T18:23:47;98256.53;;;16.30;84.33
15382;BME280;7789;51.364;12.358;2023-03-13T18:28:51;98276.03;;;16.29;80.70
15382;BME280;7789;51.364;12.358;2023-03-13T18:34:01;98275.25;;;16.22;79.21
15382;BME280;7789;51.364;12.358;2023-03-13T18:39:13;98283.38;;;16.21;77.97
15382;BME280;7789;51.364;12.358;2023-03-13T18:44:18;98284.81;;;16.17;75.53
15382;BME280;7789;51.364;12.358;2023-03-13T18:49:25;98286.47;;;16.11;75.40
15382;BME280;7789;51.364;12.358;2023-03-13T18:54:30;98289.34;;;16.03;76.48
15382;BME280;7789;51.364;12.358;2023-03-13T18:59:34;98271.78;;;15.91;77.45
15382;BME280;7789;51.364;12.358;2023-03-13T19:04:38;98290.88;;;15.80;79.37
15382;BME280;7789;51.364;12.358;2023-03-13T19:09:44;98310.78;;;15.69;80.61
15382;BME280;7789;51.364;12.358;2023-03-13T19:14:48;98314.09;;;15.58;82.06
15382;BME280;7789;51.364;12.358;2023-03-13T19:19:53;98332.72;;;15.50;82.42
15382;BME280;7789;51.364;12.358;2023-03-13T19:25:00;98336.78;;;15.46;83.37
15382;BME280;7789;51.364;12.358;2023-03-13T19:30:05;98333.56;;;15.38;83.30
15382;BME280;7789;51.364;12.358;2023-03-13T19:35:18;98342.28;;;15.25;84.37
15382;BME280;7789;51.364;12.358;2023-03-13T19:40:25;98327.69;;;15.16;84.13
15382;BME280;7789;51.364;12.358;2023-03-13T19:45:30;98307.25;;;15.05;83.92
15382;BME280;7789;51.364;12.358;2023-03-13T19:50:34;98300.41;;;14.98;84.87
15382;BME280;7789;51.364;12.358;2023-03-13T19:55:42;98292.69;;;14.96;85.15
15382;BME280;7789;51.364;12.358;2023-03-13T20:00:47;98293.09;;;14.93;85.45
15382;BME280;7789;51.364;12.358;2023-03-13T20:05:50;98290.06;;;14.90;85.32
15382;BME280;7789;51.364;12.358;2023-03-13T20:10:55;98285.22;;;14.81;85.44
15382;BME280;7789;51.364;12.358;2023-03-13T20:16:00;98283.41;;;14.75;86.26
15382;BME280;7789;51.364;12.358;2023-03-13T20:21:03;98286.81;;;14.75;86.06
15382;BME280;7789;51.364;12.358;2023-03-13T20:26:10;98253.03;;;14.72;86.43
15382;BME280;7789;51.364;12.358;2023-03-13T20:31:15;98236.25;;;14.67;86.63
15382;BME280;7789;51.364;12.358;2023-03-13T20:36:21;98235.66;;;14.65;85.88
15382;BME280;7789;51.364;12.358;2023-03-13T20:41:28;98231.00;;;14.60;85.95
15382;BME280;7789;51.364;12.358;2023-03-13T20:46:32;98238.09;;;14.60;86.15
15382;BME280;7789;51.364;12.358;2023-03-13T20:51:36;98248.19;;;14.56;86.01
15382;BME280;7789;51.364;12.358;2023-03-13T20:56:41;98268.81;;;14.53;85.86
15382;BME280;7789;51.364;12.358;2023-03-13T21:01:45;98282.97;;;14.52;86.63
15382;BME280;7789;51.364;12.358;2023-03-13T21:06:48;98284.59;;;14.53;86.45
15382;BME280;7789;51.364;12.358;2023-03-13T21:11:53;98305.03;;;14.51;87.43
15382;BME280;7789;51.364;12.358;2023-03-13T21:16:56;98311.28;;;14.50;87.64
15382;BME280;7789;51.364;12.358;2023-03-13T21:22:03;98314.13;;;14.42;89.35
15382;BME280;7789;51.364;12.358;2023-03-13T21:27:09;98318.34;;;14.36;90.93
15382;BME280;7789;51.364;12.358;2023-03-13T21:32:13;98299.13;;;14.23;92.23
15382;BME280;7789;51.364;12.358;2023-03-13T21:37:17;98309.78;;;14.15;93.90
15382;BME280;7789;51.364;12.358;2023-03-13T21:42:22;98303.28;;;14.04;94.73
15382;BME280;7789;51.364;12.358;2023-03-13T21:47:26;98301.47;;;13.98;95.81
15382;BME280;7789;51.364;12.358;2023-03-13T21:52:32;98289.31;;;13.91;97.71
15382;BME280;7789;51.364;12.358;2023-03-13T21:57:43;98273.72;;;13.83;99.65
15382;BME280;7789;51.364;12.358;2023-03-13T22:02:47;98262.56;;;13.74;100.00
15382;BME280;7789;51.364;12.358;2023-03-13T22:07:51;98233.44;;;13.63;100.00
15382;BME280;7789;51.364;12.358;2023-03-13T22:12:57;98190.38;;;13.51;100.00
15382;BME280;7789;51.364;12.358;2023-03-13T22:18:01;98151.00;;;13.38;100.00
15382;BME280;7789;51.364;12.358;2023-03-13T22:23:04;98072.22;;;13.25;100.00
15382;BME280;7789;51.364;12.358;2023-03-13T22:28:10;98013.06;;;13.22;100.00
15382;BME280;7789;51.364;12.358;2023-03-13T22:33:14;98021.53;;;13.18;100.00
15382;BME280;7789;51.364;12.358;2023-03-13T22:38:18;98061.91;;;13.17;100.00
15382;BME280;7789;51.364;12.358;2023-03-13T22:43:23;98108.91;;;13.12;100.00
15382;BME280;7789;51.364;12.358;2023-03-13T22:48:27;98152.06;;;13.09;100.00
15382;BME280;7789;51.364;12.358;2023-03-13T22:53:33;98140.34;;;13.05;100.00
15382;BME280;7789;51.364;12.358;2023-03-13T22:58:38;98147.81;;;13.02;100.00
15382;BME280;7789;51.364;12.358;2023-03-13T23:03:42;98166.38;;;13.00;100.00
15382;BME280;7789;51.364;12.358;2023-03-13T23:08:45;98169.00;;;13.00;100.00
15382;BME280;7789;51.364;12.358;2023-03-13T23:13:51;98158.50;;;13.00;100.00
15382;BME280;7789;51.364;12.358;2023-03-13T23:18:54;98160.69;;;12.97;100.00
15382;BME280;7789;51.364;12.358;2023-03-13T23:23:57;98166.34;;;12.94;100.00
15382;BME280;7789;51.364;12.358;2023-03-13T23:29:02;98162.25;;;12.91;100.00
15382;BME280;7789;51.364;12.358;2023-03-13T23:34:05;98153.97;;;12.88;100.00
15382;BME280;7789;51.364;12.358;2023-03-13T23:39:08;98149.09;;;12.85;100.00
15382;BME280;7789;51.364;12.358;2023-03-13T23:44:13;98148.50;;;12.83;100.00
15382;BME280;7789;51.364;12.358;2023-03-13T23:49:16;98130.53;;;12.80;100.00
15382;BME280;7789;51.364;12.358;2023-03-13T23:54:20;98112.56;;;12.77;100.00
15382;BME280;7789;51.364;12.358;2023-03-13T23:59:25;98098.66;;;12.77;100.00
